createdAt,value
2022-10-12T00:00:24.366Z,14.75
2022-10-12T00:02:50.601Z,16.25
2022-10-12T00:05:16.834Z,16.00
2022-10-12T00:07:43.020Z,21.10
2022-10-12T00:10:09.265Z,19.00
2022-10-12T00:12:35.462Z,16.55
2022-10-12T00:15:01.710Z,18.08
2022-10-12T00:17:27.938Z,17.42
2022-10-12T00:19:54.144Z,12.23
2022-10-12T00:22:20.564Z,16.65
2022-10-12T00:24:46.995Z,17.45
2022-10-12T00:27:13.279Z,13.63
2022-10-12T00:29:39.471Z,13.05
2022-10-12T00:32:05.702Z,14.02
2022-10-12T00:34:31.964Z,16.13
2022-10-12T00:36:58.173Z,16.77
2022-10-12T00:39:24.402Z,18.50
2022-10-12T00:41:50.687Z,13.98
2022-10-12T00:44:36.811Z,16.98
2022-10-12T00:47:05.124Z,18.63
2022-10-12T00:49:31.380Z,17.42
2022-10-12T00:52:01.533Z,18.58
2022-10-12T00:54:32.860Z,13.77
2022-10-12T00:57:01.267Z,16.67
2022-10-12T00:59:32.383Z,12.35
2022-10-12T01:02:06.052Z,12.82
2022-10-12T01:04:32.715Z,11.73
2022-10-12T01:06:59.525Z,16.23
2022-10-12T01:09:27.416Z,12.75
2022-10-12T01:11:53.728Z,13.52
2022-10-12T01:14:19.945Z,12.07
2022-10-12T01:17:04.814Z,16.40
2022-10-12T01:19:53.748Z,17.63
2022-10-12T01:22:22.868Z,13.88
2022-10-12T01:24:52.789Z,13.35
2022-10-12T01:27:39.548Z,13.50
2022-10-12T01:30:13.676Z,12.45
2022-10-12T01:32:42.686Z,18.45
2022-10-12T01:35:39.043Z,16.77
2022-10-12T01:38:08.010Z,13.02
2022-10-12T01:40:42.158Z,11.20
2022-10-12T01:43:08.507Z,11.13
2022-10-12T01:45:34.990Z,11.65
2022-10-12T01:48:01.548Z,13.07
2022-10-12T01:50:32.187Z,14.57
2022-10-12T01:53:05.132Z,14.97
2022-10-12T01:55:34.491Z,13.80
2022-10-12T01:58:18.754Z,16.75
2022-10-12T02:01:05.270Z,18.40
2022-10-12T02:03:40.055Z,16.73
2022-10-12T02:06:06.300Z,13.60
2022-10-12T02:08:36.611Z,13.85
2022-10-12T02:11:05.835Z,13.70
2022-10-12T02:13:34.666Z,14.63
2022-10-12T02:16:02.275Z,13.80
2022-10-12T02:18:28.695Z,14.25
2022-10-12T02:20:58.022Z,13.02
2022-10-12T02:23:25.069Z,13.35
2022-10-12T02:25:52.849Z,12.13
2022-10-12T02:28:21.828Z,13.80
2022-10-12T02:30:52.405Z,13.27
2022-10-12T02:33:23.854Z,13.60
2022-10-12T02:38:19.192Z,11.32
2022-10-12T02:40:47.857Z,13.50
2022-10-12T02:43:17.435Z,13.20
2022-10-12T02:45:44.853Z,15.38
2022-10-12T02:48:13.634Z,15.18
2022-10-12T02:50:40.015Z,12.88
2022-10-12T02:53:06.680Z,19.13
2022-10-12T02:55:37.202Z,15.00
2022-10-12T02:58:03.395Z,16.48
2022-10-12T03:00:32.572Z,10.55
2022-10-12T03:02:58.756Z,14.38
2022-10-12T03:05:24.936Z,12.15
2022-10-12T03:07:51.177Z,12.45
2022-10-12T03:10:17.497Z,10.70
2022-10-12T03:12:49.136Z,12.00
2022-10-12T03:15:16.319Z,10.75
2022-10-12T03:17:42.513Z,8.93
2022-10-12T03:20:08.998Z,10.60
2022-10-12T03:22:35.225Z,11.30
2022-10-12T03:25:01.473Z,10.27
2022-10-12T03:27:27.682Z,11.45
2022-10-12T03:29:53.916Z,12.93
2022-10-12T03:32:20.257Z,12.27
2022-10-12T03:34:46.457Z,10.52
2022-10-12T03:37:12.663Z,10.95
2022-10-12T03:39:38.956Z,11.90
2022-10-12T03:42:05.171Z,12.30
2022-10-12T03:44:31.389Z,14.82
2022-10-12T03:46:57.609Z,10.85
2022-10-12T03:49:23.848Z,11.95
2022-10-12T03:51:50.084Z,10.82
2022-10-12T03:54:16.479Z,12.27
2022-10-12T03:56:42.721Z,10.65
2022-10-12T03:59:08.925Z,10.15
2022-10-12T04:01:35.193Z,10.95
2022-10-12T04:04:01.476Z,11.27
2022-10-12T04:06:27.686Z,9.88
2022-10-12T04:08:53.903Z,10.13
2022-10-12T04:11:20.433Z,10.27
2022-10-12T04:13:46.688Z,9.02
2022-10-12T04:16:12.880Z,11.38
2022-10-12T04:18:39.127Z,13.48
2022-10-12T04:21:08.870Z,12.82
2022-10-12T04:23:35.090Z,8.27
2022-10-12T04:26:01.287Z,10.48
2022-10-12T04:28:27.561Z,10.60
2022-10-12T04:30:53.867Z,11.18
2022-10-12T04:33:20.080Z,9.68
2022-10-12T04:35:46.277Z,12.30
2022-10-12T04:38:13.115Z,8.95
2022-10-12T04:40:39.492Z,11.57
2022-10-12T04:43:05.689Z,10.88
2022-10-12T04:45:31.869Z,12.75
2022-10-12T04:47:58.094Z,10.52
2022-10-12T04:50:28.983Z,14.95
2022-10-12T04:52:56.152Z,10.98
2022-10-12T04:55:22.399Z,12.23
2022-10-12T04:57:49.983Z,14.30
2022-10-12T05:00:17.069Z,10.07
2022-10-12T05:02:43.311Z,13.80
2022-10-12T05:05:09.663Z,12.02
2022-10-12T05:07:36.135Z,9.02
2022-10-12T05:10:02.552Z,14.65
2022-10-12T05:12:28.806Z,13.35
2022-10-12T05:14:55.021Z,14.32
2022-10-12T05:17:21.235Z,13.32
2022-10-12T05:19:47.441Z,11.65
2022-10-12T05:22:13.645Z,13.38
2022-10-12T05:24:39.903Z,13.55
2022-10-12T05:27:06.153Z,14.38
2022-10-12T05:29:32.405Z,12.73
2022-10-12T05:31:58.657Z,14.45
2022-10-12T05:34:24.936Z,11.75
2022-10-12T05:36:51.159Z,10.38
2022-10-12T05:39:17.397Z,13.73
2022-10-12T05:41:43.690Z,13.35
2022-10-12T05:44:09.915Z,10.05
2022-10-12T05:46:36.113Z,15.27
2022-10-12T05:49:02.408Z,30.08
2022-10-12T05:51:29.145Z,16.65
2022-10-12T05:53:55.477Z,16.25
2022-10-12T05:56:21.720Z,20.23
2022-10-12T05:58:47.916Z,12.93
2022-10-12T06:01:14.166Z,13.40
2022-10-12T06:03:40.668Z,10.45
2022-10-12T06:06:07.107Z,15.25
2022-10-12T06:08:33.984Z,12.38
2022-10-12T06:11:00.505Z,15.23
2022-10-12T06:13:26.699Z,12.55
2022-10-12T06:15:52.970Z,11.00
2022-10-12T06:18:19.544Z,11.07
2022-10-12T06:20:49.536Z,11.85
2022-10-12T06:23:15.913Z,11.75
2022-10-12T06:25:42.144Z,13.50
2022-10-12T06:28:08.361Z,10.68
2022-10-12T06:30:34.604Z,10.70
2022-10-12T06:33:00.816Z,12.20
2022-10-12T06:35:27.057Z,15.98
2022-10-12T06:37:53.709Z,13.77
2022-10-12T06:40:20.307Z,14.55
2022-10-12T06:42:46.587Z,14.15
2022-10-12T06:45:12.798Z,9.55
2022-10-12T06:47:38.992Z,11.85
2022-10-12T06:50:05.472Z,11.63
2022-10-12T06:52:31.746Z,10.38
2022-10-12T06:54:57.954Z,13.10
2022-10-12T06:57:24.200Z,11.75
2022-10-12T06:59:50.523Z,12.77
2022-10-12T07:02:17.175Z,12.75
2022-10-12T07:04:43.518Z,9.75
2022-10-12T07:07:09.788Z,11.10
2022-10-12T07:09:36.332Z,13.52
2022-10-12T07:12:02.558Z,9.05
2022-10-12T07:14:28.826Z,7.50
2022-10-12T07:16:55.582Z,8.43
2022-10-12T07:19:22.149Z,9.05
2022-10-12T07:21:48.340Z,9.00
2022-10-12T07:24:14.581Z,10.65
2022-10-12T07:26:40.813Z,10.13
2022-10-12T07:29:07.386Z,9.93
2022-10-12T07:31:33.608Z,9.00
2022-10-12T07:33:59.797Z,7.13
2022-10-12T07:36:41.100Z,8.68
2022-10-12T07:39:12.678Z,8.65
2022-10-12T07:41:38.910Z,8.98
2022-10-12T07:44:05.151Z,12.88
2022-10-12T07:46:31.384Z,11.05
2022-10-12T07:48:57.708Z,9.15
2022-10-12T07:51:23.902Z,9.80
2022-10-12T07:53:50.629Z,8.95
2022-10-12T07:56:17.515Z,8.13
2022-10-12T07:58:47.891Z,8.23
2022-10-12T08:01:14.211Z,9.27
2022-10-12T08:03:40.640Z,10.05
2022-10-12T08:06:11.163Z,6.88
2022-10-12T08:08:37.461Z,7.60
2022-10-12T08:11:04.408Z,10.50
2022-10-12T08:13:30.903Z,8.82
2022-10-12T08:15:57.261Z,8.98
2022-10-12T08:18:23.489Z,11.55
2022-10-12T08:20:49.817Z,8.13
2022-10-12T08:23:16.190Z,6.68
2022-10-12T08:25:43.912Z,7.68
2022-10-12T08:28:10.252Z,11.93
2022-10-12T08:30:38.701Z,11.07
2022-10-12T08:33:09.495Z,8.38
2022-10-12T08:35:40.122Z,8.65
2022-10-12T08:38:07.282Z,8.02
2022-10-12T08:40:35.056Z,11.68
2022-10-12T08:43:20.163Z,8.07
2022-10-12T08:45:50.629Z,7.28
2022-10-12T08:48:28.318Z,7.90
2022-10-12T08:51:01.194Z,10.60
2022-10-12T08:53:27.593Z,9.90
2022-10-12T08:55:53.966Z,9.82
2022-10-12T08:58:21.721Z,10.00
2022-10-12T09:00:53.504Z,9.20
2022-10-12T09:03:37.603Z,12.32
2022-10-12T09:06:22.729Z,8.95
2022-10-12T09:08:55.150Z,10.90
2022-10-12T09:11:40.504Z,8.77
2022-10-12T09:14:17.892Z,10.80
2022-10-12T09:16:45.499Z,10.63
2022-10-12T09:19:14.445Z,10.10
2022-10-12T09:21:45.313Z,8.73
2022-10-12T09:24:17.383Z,8.73
2022-10-12T09:26:44.407Z,10.93
2022-10-12T09:29:20.915Z,6.45
2022-10-12T09:32:05.370Z,7.65
2022-10-12T09:34:31.752Z,10.75
2022-10-12T09:36:58.045Z,9.02
2022-10-12T09:39:30.588Z,8.88
2022-10-12T09:41:57.075Z,11.77
2022-10-12T09:44:37.629Z,10.50
2022-10-12T09:47:06.081Z,11.30
2022-10-12T09:49:42.365Z,10.98
2022-10-12T09:52:09.144Z,8.57
2022-10-12T09:54:35.706Z,11.38
2022-10-12T09:57:02.532Z,12.20
2022-10-12T09:59:30.747Z,10.70
2022-10-12T10:02:12.159Z,13.20
2022-10-12T10:04:38.688Z,9.00
2022-10-12T10:07:22.743Z,10.65
2022-10-12T10:10:02.899Z,8.75
2022-10-12T10:12:29.270Z,10.45
2022-10-12T10:14:56.710Z,9.35
2022-10-12T10:17:24.431Z,8.63
2022-10-12T10:19:51.392Z,11.15
2022-10-12T10:22:18.543Z,8.80
2022-10-12T10:24:49.585Z,10.23
2022-10-12T10:27:29.968Z,9.93
2022-10-12T10:30:28.729Z,10.00
2022-10-12T10:33:07.050Z,17.35
2022-10-12T10:35:33.300Z,10.05
2022-10-12T10:37:59.989Z,10.68
2022-10-12T10:40:27.781Z,10.75
2022-10-12T10:42:55.426Z,8.50
2022-10-12T10:45:23.328Z,9.02
2022-10-12T10:47:50.400Z,10.05
2022-10-12T10:50:29.031Z,10.02
2022-10-12T10:52:57.614Z,10.80
2022-10-12T10:55:28.572Z,12.80
2022-10-12T10:58:01.845Z,10.05
2022-10-12T11:00:44.893Z,9.48
2022-10-12T11:06:15.347Z,14.20
2022-10-12T11:08:43.289Z,12.57
2022-10-12T11:11:12.472Z,9.52
2022-10-12T11:13:42.196Z,11.95
2022-10-12T11:16:28.714Z,9.50
2022-10-12T11:18:56.589Z,11.50
2022-10-12T11:21:26.504Z,10.43
2022-10-12T11:24:00.567Z,11.85
2022-10-12T11:26:31.503Z,11.77
2022-10-12T11:28:59.136Z,7.95
2022-10-12T11:31:34.480Z,9.00
2022-10-12T11:34:03.327Z,11.68
2022-10-12T11:36:30.679Z,9.52
2022-10-12T11:39:03.215Z,11.88
2022-10-12T11:42:09.613Z,10.60
2022-10-12T11:44:38.751Z,11.07
2022-10-12T11:47:23.819Z,9.75
2022-10-12T11:49:52.927Z,11.75
2022-10-12T11:52:22.903Z,8.77
2022-10-12T11:54:55.665Z,8.27
2022-10-12T11:57:27.551Z,8.45
2022-10-12T11:59:56.598Z,9.90
2022-10-12T12:02:25.599Z,8.52
2022-10-12T12:04:52.653Z,7.55
2022-10-12T12:07:37.571Z,7.68
2022-10-12T12:10:22.543Z,9.43
2022-10-12T12:13:11.468Z,8.50
2022-10-12T12:15:38.517Z,9.82
2022-10-12T12:18:15.631Z,7.50
2022-10-12T12:20:42.344Z,8.85
2022-10-12T12:23:27.218Z,7.68
2022-10-12T12:26:25.789Z,8.57
2022-10-12T12:29:07.554Z,8.77
2022-10-12T12:31:34.038Z,7.72
2022-10-12T12:34:01.954Z,8.98
2022-10-12T12:36:31.304Z,11.00
2022-10-12T12:38:57.571Z,8.18
2022-10-12T12:41:47.499Z,8.07
2022-10-12T12:44:35.003Z,8.18
2022-10-12T12:47:01.163Z,13.98
2022-10-12T12:49:45.836Z,8.00
2022-10-12T12:52:12.329Z,8.45
2022-10-12T12:54:50.580Z,12.70
2022-10-12T12:57:19.496Z,9.65
2022-10-12T12:59:48.740Z,9.38
2022-10-12T13:02:15.042Z,11.05
2022-10-12T13:05:14.510Z,11.70
2022-10-12T13:07:52.036Z,11.90
2022-10-12T13:10:37.150Z,10.30
2022-10-12T13:13:09.223Z,8.18
2022-10-12T13:15:52.355Z,11.52
2022-10-12T13:18:52.446Z,9.15
2022-10-12T13:21:21.610Z,8.10
2022-10-12T13:23:49.325Z,6.55
2022-10-12T13:26:21.918Z,10.35
2022-10-12T13:28:48.590Z,10.00
2022-10-12T13:31:25.567Z,10.18
2022-10-12T13:34:10.743Z,8.60
2022-10-12T13:36:47.148Z,9.15
2022-10-12T13:39:18.064Z,9.70
2022-10-12T13:41:44.886Z,13.38
2022-10-12T13:44:19.439Z,9.10
2022-10-12T13:46:46.716Z,7.70
2022-10-12T13:49:12.900Z,13.45
2022-10-12T13:51:39.118Z,9.60
2022-10-12T13:54:15.393Z,7.28
2022-10-12T13:56:41.760Z,6.90
2022-10-12T13:59:17.804Z,9.57
2022-10-12T14:01:52.826Z,9.30
2022-10-12T14:04:19.241Z,9.45
2022-10-12T14:07:11.931Z,9.73
2022-10-12T14:09:41.878Z,7.75
2022-10-12T14:12:08.680Z,11.55
2022-10-12T14:14:37.165Z,7.75
2022-10-12T14:17:03.520Z,7.35
2022-10-12T14:19:33.358Z,9.43
2022-10-12T14:22:00.431Z,13.27
2022-10-12T14:24:26.829Z,8.90
2022-10-12T14:26:54.667Z,7.60
2022-10-12T14:29:27.029Z,10.57
2022-10-12T14:31:57.788Z,7.93
2022-10-12T14:34:26.843Z,8.55
2022-10-12T14:37:03.040Z,7.32
2022-10-12T14:39:29.362Z,10.35
2022-10-12T14:41:56.529Z,10.93
2022-10-12T14:44:23.354Z,9.13
2022-10-12T14:46:54.224Z,6.40
2022-10-12T14:49:32.216Z,7.63
2022-10-12T14:51:59.205Z,11.70
2022-10-12T14:54:25.472Z,7.07
2022-10-12T14:56:51.680Z,8.10
2022-10-12T14:59:17.941Z,10.27
2022-10-12T15:01:47.463Z,8.68
2022-10-12T15:04:17.392Z,5.30
2022-10-12T15:06:48.308Z,10.93
2022-10-12T15:09:16.829Z,10.32
2022-10-12T15:11:43.166Z,8.20
2022-10-12T15:14:09.932Z,7.10
2022-10-12T15:16:36.394Z,8.30
2022-10-12T15:19:02.635Z,11.90
2022-10-12T15:21:28.806Z,8.82
2022-10-12T15:23:55.061Z,7.97
2022-10-12T15:26:22.391Z,7.40
2022-10-12T15:28:48.705Z,10.95
2022-10-12T15:31:18.273Z,9.23
2022-10-12T15:33:45.367Z,9.55
2022-10-12T15:36:11.682Z,8.70
2022-10-12T15:38:38.049Z,7.60
2022-10-12T15:41:04.683Z,15.27
2022-10-12T15:43:32.407Z,11.30
2022-10-12T15:46:00.173Z,10.45
2022-10-12T15:48:27.749Z,8.27
2022-10-12T15:50:53.954Z,6.80
2022-10-12T15:53:23.522Z,9.63
2022-10-12T15:55:50.256Z,7.72
2022-10-12T15:58:16.756Z,11.18
2022-10-12T16:00:43.072Z,12.55
2022-10-12T16:03:13.129Z,10.70
2022-10-12T16:05:39.406Z,8.70
2022-10-12T16:08:06.038Z,8.30
2022-10-12T16:10:33.923Z,12.10
2022-10-12T16:13:00.411Z,7.65
2022-10-12T16:15:29.431Z,7.88
2022-10-12T16:17:56.047Z,10.10
2022-10-12T16:20:22.711Z,9.85
2022-10-12T16:22:49.455Z,6.95
2022-10-12T16:25:17.047Z,8.20
2022-10-12T16:27:43.933Z,10.02
2022-10-12T16:30:10.393Z,9.25
2022-10-12T16:32:36.609Z,7.55
2022-10-12T16:35:03.610Z,10.85
2022-10-12T16:37:30.167Z,14.40
2022-10-12T16:39:56.387Z,7.63
2022-10-12T16:42:22.760Z,12.88
2022-10-12T16:44:49.040Z,9.70
2022-10-12T16:47:15.462Z,8.00
2022-10-12T16:49:41.950Z,8.52
2022-10-12T16:52:08.367Z,11.10
2022-10-12T16:54:34.603Z,10.10
2022-10-12T16:57:00.908Z,10.05
2022-10-12T16:59:27.372Z,8.50
2022-10-12T17:01:53.741Z,11.18
2022-10-12T17:04:20.958Z,10.82
2022-10-12T17:06:48.061Z,11.23
2022-10-12T17:09:14.438Z,8.45
2022-10-12T17:11:40.695Z,8.05
2022-10-12T17:14:07.965Z,10.45
2022-10-12T17:16:49.829Z,7.68
2022-10-12T17:19:20.517Z,10.85
2022-10-12T17:21:47.567Z,9.23
2022-10-12T17:24:15.478Z,9.98
2022-10-12T17:26:42.137Z,5.05
2022-10-12T17:29:09.822Z,9.10
2022-10-12T17:31:36.403Z,12.07
2022-10-12T17:34:02.783Z,11.00
2022-10-12T17:36:29.084Z,10.73
2022-10-12T17:38:55.979Z,11.20
2022-10-12T17:41:22.274Z,12.13
2022-10-12T17:43:48.459Z,10.57
2022-10-12T17:46:17.004Z,10.30
2022-10-12T17:48:45.224Z,10.88
2022-10-12T17:51:12.858Z,10.60
2022-10-12T17:53:39.937Z,12.48
2022-10-12T17:56:07.019Z,9.35
2022-10-12T17:58:33.475Z,7.65
2022-10-12T18:01:10.031Z,8.70
2022-10-12T18:03:36.500Z,9.70
2022-10-12T18:06:06.130Z,10.43
2022-10-12T18:08:32.538Z,10.73
2022-10-12T18:10:59.756Z,11.35
2022-10-12T18:13:26.251Z,10.13
2022-10-12T18:15:52.532Z,11.80
2022-10-12T18:18:19.108Z,12.07
2022-10-12T18:20:45.511Z,11.07
2022-10-12T18:23:12.334Z,11.50
2022-10-12T18:25:39.202Z,12.77
2022-10-12T18:28:05.858Z,11.68
2022-10-12T18:30:32.368Z,9.13
2022-10-12T18:33:00.182Z,12.95
2022-10-12T18:35:27.002Z,11.27
2022-10-12T18:37:53.316Z,14.15
2022-10-12T18:40:19.700Z,10.18
2022-10-12T18:42:45.934Z,13.93
2022-10-12T18:45:12.267Z,12.55
2022-10-12T18:47:39.047Z,13.27
2022-10-12T18:50:05.839Z,15.65
2022-10-12T18:52:32.342Z,12.02
2022-10-12T18:54:58.576Z,10.73
2022-10-12T18:57:30.195Z,10.27
2022-10-12T18:59:57.477Z,14.88
2022-10-12T19:02:23.676Z,12.18
2022-10-12T19:04:49.898Z,11.45
2022-10-12T19:07:16.889Z,12.60
2022-10-12T19:09:43.097Z,10.77
2022-10-12T19:12:09.529Z,10.63
2022-10-12T19:14:36.079Z,11.57
2022-10-12T19:17:02.336Z,14.95
2022-10-12T19:19:28.553Z,11.60
2022-10-12T19:21:54.920Z,11.13
2022-10-12T19:24:21.805Z,13.27
2022-10-12T19:26:48.437Z,8.63
2022-10-12T19:29:14.957Z,8.23
2022-10-12T19:31:43.419Z,12.15
2022-10-12T19:34:11.004Z,10.18
2022-10-12T19:36:37.863Z,8.95
2022-10-12T19:39:06.398Z,11.30
2022-10-12T19:41:32.847Z,10.05
2022-10-12T19:43:59.669Z,11.65
2022-10-12T19:46:25.952Z,9.75
2022-10-12T19:48:53.051Z,9.90
2022-10-12T19:51:20.044Z,9.65
2022-10-12T19:53:46.349Z,10.30
2022-10-12T19:56:15.244Z,11.85
2022-10-12T19:58:42.140Z,12.55
2022-10-12T20:01:11.006Z,10.95
2022-10-12T20:03:37.631Z,12.90
2022-10-12T20:06:07.879Z,10.93
2022-10-12T20:08:34.361Z,12.50
2022-10-12T20:11:03.732Z,12.07
2022-10-12T20:13:30.384Z,10.32
2022-10-12T20:15:57.000Z,10.20
2022-10-12T20:18:23.699Z,13.32
2022-10-12T20:20:50.244Z,10.70
2022-10-12T20:23:16.960Z,11.60
2022-10-12T20:25:44.265Z,14.70
2022-10-12T20:28:10.972Z,14.30
2022-10-12T20:30:37.552Z,16.42
2022-10-12T20:33:03.958Z,15.50
2022-10-12T20:35:33.567Z,12.48
2022-10-12T20:38:00.380Z,17.83
2022-10-12T20:40:26.867Z,12.65
2022-10-12T20:42:53.912Z,13.80
2022-10-12T20:45:20.246Z,15.32
2022-10-12T20:47:46.518Z,15.27
2022-10-12T20:50:13.301Z,15.45
2022-10-12T20:52:42.746Z,11.30
2022-10-12T20:55:09.710Z,15.70
2022-10-12T20:57:36.109Z,11.77
2022-10-12T21:00:02.565Z,12.63
2022-10-12T21:02:28.770Z,12.43
2022-10-12T21:04:54.973Z,19.38
2022-10-12T21:07:21.241Z,15.95
2022-10-12T21:09:47.465Z,14.48
2022-10-12T21:12:13.663Z,18.15
2022-10-12T21:14:39.868Z,16.48
2022-10-12T21:17:06.091Z,18.50
2022-10-12T21:19:32.287Z,20.65
2022-10-12T21:21:58.585Z,17.85
2022-10-12T21:24:25.010Z,16.95
2022-10-12T21:26:51.809Z,22.05
2022-10-12T21:29:18.085Z,20.42
2022-10-12T21:31:45.301Z,20.95
2022-10-12T21:34:11.803Z,21.20
2022-10-12T21:36:38.525Z,15.13
2022-10-12T21:39:10.688Z,22.80
2022-10-12T21:41:36.912Z,17.98
2022-10-12T21:44:03.385Z,18.77
2022-10-12T21:46:30.731Z,20.52
2022-10-12T21:48:57.255Z,21.00
2022-10-12T21:51:23.969Z,17.13
2022-10-12T21:53:50.704Z,19.08
2022-10-12T21:56:18.855Z,22.15
2022-10-12T21:58:45.614Z,19.63
2022-10-12T22:01:13.565Z,20.63
2022-10-12T22:03:40.443Z,21.02
2022-10-12T22:06:06.698Z,20.17
2022-10-12T22:08:32.936Z,21.67
2022-10-12T22:11:06.355Z,19.10
2022-10-12T22:13:32.863Z,24.85
2022-10-12T22:16:00.095Z,19.17
2022-10-12T22:18:26.307Z,26.90
2022-10-12T22:20:52.496Z,23.25
2022-10-12T22:23:18.709Z,23.85
2022-10-12T22:25:44.889Z,23.27
2022-10-12T22:28:11.209Z,21.95
2022-10-12T22:30:40.793Z,21.45
2022-10-12T22:33:07.245Z,22.55
2022-10-12T22:35:33.482Z,19.50
2022-10-12T22:37:59.789Z,16.77
2022-10-12T22:40:26.015Z,18.05
2022-10-12T22:42:52.216Z,19.25
2022-10-12T22:45:18.441Z,19.10
2022-10-12T22:47:45.097Z,16.38
2022-10-12T22:50:11.337Z,19.00
2022-10-12T22:52:37.630Z,16.67
2022-10-12T22:55:03.925Z,15.68
2022-10-12T22:57:30.128Z,15.77
2022-10-12T22:59:56.304Z,14.63
2022-10-12T23:02:22.498Z,17.38
2022-10-12T23:04:48.708Z,16.50
2022-10-12T23:07:14.920Z,17.23
2022-10-12T23:09:41.383Z,16.98
2022-10-12T23:12:07.678Z,17.25
2022-10-12T23:14:33.930Z,15.57
2022-10-12T23:17:00.103Z,17.83
2022-10-12T23:19:26.354Z,19.73
2022-10-12T23:21:52.551Z,18.83
2022-10-12T23:24:18.736Z,16.33
2022-10-12T23:26:44.967Z,16.25
2022-10-12T23:29:11.174Z,16.90
2022-10-12T23:31:37.412Z,18.05
2022-10-12T23:34:04.982Z,16.13
2022-10-12T23:36:31.514Z,16.23
2022-10-12T23:38:59.781Z,17.05
2022-10-12T23:41:26.127Z,16.05
2022-10-12T23:43:52.382Z,18.75
2022-10-12T23:46:18.645Z,17.35
2022-10-12T23:48:44.851Z,17.80
2022-10-12T23:51:11.174Z,17.60
2022-10-12T23:53:37.819Z,20.65
2022-10-12T23:56:04.945Z,16.25
2022-10-12T23:58:31.210Z,16.73
